<?xml version="1.0" encoding="UTF-8"?>
<gpx creator="Garmin Connect" version="1.1"
  xsi:schemaLocation="http://www.topografix.com/GPX/1/1 http://www.topografix.com/GPX/11.xsd"
  xmlns:ns3="http://www.garmin.com/xmlschemas/TrackPointExtension/v1"
  xmlns="http://www.topografix.com/GPX/1/1"
  xmlns:xsi="http://www.w3.org/2001/XMLSchema-instance" xmlns:ns2="http://www.garmin.com/xmlschemas/GpxExtensions/v3">
  <metadata>
    <name>MTB Family 7km</name>
    <link href="connect.garmin.com">
      <text>Garmin Connect</text>
    </link>
    <time>2023-11-14T14:29:22.000Z</time>
  </metadata>
  <trk>
    <name>MTB Family 7km</name>
    <trkseg>
      <trkpt lat="48.27900714240968" lon="17.049128506332636">
        <ele>196.74</ele>
        <time>2023-11-14T14:29:22.000Z</time>
      </trkpt>
      <trkpt lat="48.279107892885804" lon="17.049890756607056">
        <ele>198.07</ele>
        <time>2023-11-14T14:29:22.010Z</time>
      </trkpt>
      <trkpt lat="48.2791615370661" lon="17.050362825393677">
        <ele>199.17</ele>
        <time>2023-11-14T14:29:22.027Z</time>
      </trkpt>
      <trkpt lat="48.27917226590216" lon="17.050448656082153">
        <ele>200.13</ele>
        <time>2023-11-14T14:29:22.045Z</time>
      </trkpt>
      <trkpt lat="48.27973008155823" lon="17.054868936538696">
        <ele>202.15</ele>
        <time>2023-11-14T14:29:22.123Z</time>
      </trkpt>
      <trkpt lat="48.279794454574585" lon="17.05500841140747">
        <ele>203.34</ele>
        <time>2023-11-14T14:29:22.203Z</time>
      </trkpt>
      <trkpt lat="48.27991247177124" lon="17.055190801620483">
        <ele>204.25</ele>
        <time>2023-11-14T14:29:22.287Z</time>
      </trkpt>
      <trkpt lat="48.2799768447876" lon="17.055383920669556">
        <ele>204.91</ele>
        <time>2023-11-14T14:29:22.374Z</time>
      </trkpt>
      <trkpt lat="48.280073404312134" lon="17.055577039718628">
        <ele>205.42</ele>
        <time>2023-11-14T14:29:22.464Z</time>
      </trkpt>
      <trkpt lat="48.280287981033325" lon="17.05578088760376">
        <ele>205.87</ele>
        <time>2023-11-14T14:29:22.559Z</time>
      </trkpt>
      <trkpt lat="48.28039535321295" lon="17.055898904800415">
        <ele>206.19</ele>
        <time>2023-11-14T14:29:22.657Z</time>
      </trkpt>
      <trkpt lat="48.2804274559021" lon="17.055941820144653">
        <ele>206.41</ele>
        <time>2023-11-14T14:29:22.755Z</time>
      </trkpt>
      <trkpt lat="48.280513286590576" lon="17.05603837966919">
        <ele>206.62</ele>
        <time>2023-11-14T14:29:22.856Z</time>
      </trkpt>
      <trkpt lat="48.28058838844299" lon="17.05623149871826">
        <ele>206.78</ele>
        <time>2023-11-14T14:29:22.960Z</time>
      </trkpt>
      <trkpt lat="48.280620658770204" lon="17.056617736816406">
        <ele>206.91</ele>
        <time>2023-11-14T14:29:23.069Z</time>
      </trkpt>
      <trkpt lat="48.28062057495117" lon="17.056617736816406">
        <ele>207.2</ele>
        <time>2023-11-14T14:29:23.178Z</time>
      </trkpt>
      <trkpt lat="48.28065276145935" lon="17.057411670684814">
        <ele>207.49</ele>
        <time>2023-11-14T14:29:23.297Z</time>
      </trkpt>
      <trkpt lat="48.28069567680359" lon="17.05774426460266">
        <ele>208.18</ele>
        <time>2023-11-14T14:29:23.421Z</time>
      </trkpt>
      <trkpt lat="48.28084588050842" lon="17.05830216407776">
        <ele>209.15</ele>
        <time>2023-11-14T14:29:23.553Z</time>
      </trkpt>
      <trkpt lat="48.281071269884706" lon="17.059128284454346">
        <ele>209.97</ele>
        <time>2023-11-14T14:29:23.697Z</time>
      </trkpt>
      <trkpt lat="48.281071186065674" lon="17.059128284454346">
        <ele>210.66</ele>
        <time>2023-11-14T14:29:23.841Z</time>
      </trkpt>
      <trkpt lat="48.281114185228944" lon="17.059224843978882">
        <ele>211.45</ele>
        <time>2023-11-14T14:29:23.986Z</time>
      </trkpt>
      <trkpt lat="48.28111410140991" lon="17.059224843978882">
        <ele>212.21</ele>
        <time>2023-11-14T14:29:24.131Z</time>
      </trkpt>
      <trkpt lat="48.281307220458984" lon="17.05976128578186">
        <ele>213.22</ele>
        <time>2023-11-14T14:29:24.285Z</time>
      </trkpt>
      <trkpt lat="48.28136086463928" lon="17.059868574142456">
        <ele>214.0</ele>
        <time>2023-11-14T14:29:24.440Z</time>
      </trkpt>
      <trkpt lat="48.28144677914679" lon="17.059965133666992">
        <ele>214.79</ele>
        <time>2023-11-14T14:29:24.598Z</time>
      </trkpt>
      <trkpt lat="48.28144669532776" lon="17.059965133666992">
        <ele>215.44</ele>
        <time>2023-11-14T14:29:24.756Z</time>
      </trkpt>
      <trkpt lat="48.28150042332709" lon="17.06000804901123">
        <ele>216.17</ele>
        <time>2023-11-14T14:29:24.915Z</time>
      </trkpt>
      <trkpt lat="48.28150033950806" lon="17.06000804901123">
        <ele>216.79</ele>
        <time>2023-11-14T14:29:25.074Z</time>
      </trkpt>
      <trkpt lat="48.28166135586798" lon="17.060093879699707">
        <ele>217.6</ele>
        <time>2023-11-14T14:29:25.236Z</time>
      </trkpt>
      <trkpt lat="48.28166127204895" lon="17.060093879699707">
        <ele>217.98</ele>
        <time>2023-11-14T14:29:25.398Z</time>
      </trkpt>
      <trkpt lat="48.282283544540405" lon="17.060394287109375">
        <ele>218.36</ele>
        <time>2023-11-14T14:29:25.573Z</time>
      </trkpt>
      <trkpt lat="48.28268059529364" lon="17.06047031097114">
        <ele>218.19</ele>
        <time>2023-11-14T14:29:25.756Z</time>
      </trkpt>
      <trkpt lat="48.282787799835205" lon="17.06049084663391">
        <ele>220.67</ele>
        <time>2023-11-14T14:29:25.941Z</time>
      </trkpt>
      <trkpt lat="48.283335054293275" lon="17.06050157546997">
        <ele>222.02</ele>
        <time>2023-11-14T14:29:26.137Z</time>
      </trkpt>
      <trkpt lat="48.28333497047424" lon="17.06050157546997">
        <ele>223.28</ele>
        <time>2023-11-14T14:29:26.333Z</time>
      </trkpt>
      <trkpt lat="48.28393578529358" lon="17.060447931289673">
        <ele>225.55</ele>
        <time>2023-11-14T14:29:26.541Z</time>
      </trkpt>
      <trkpt lat="48.2843542098999" lon="17.06048011779785">
        <ele>227.8</ele>
        <time>2023-11-14T14:29:26.758Z</time>
      </trkpt>
      <trkpt lat="48.28465461730957" lon="17.060630321502686">
        <ele>229.75</ele>
        <time>2023-11-14T14:29:26.981Z</time>
      </trkpt>
      <trkpt lat="48.28487992286682" lon="17.060844898223877">
        <ele>231.47</ele>
        <time>2023-11-14T14:29:27.209Z</time>
      </trkpt>
      <trkpt lat="48.285309160128236" lon="17.06152081489563">
        <ele>232.97</ele>
        <time>2023-11-14T14:29:27.450Z</time>
      </trkpt>
      <trkpt lat="48.285309076309204" lon="17.06152081489563">
        <ele>234.11</ele>
        <time>2023-11-14T14:29:27.691Z</time>
      </trkpt>
      <trkpt lat="48.2859742641449" lon="17.062668800354004">
        <ele>235.46</ele>
        <time>2023-11-14T14:29:27.952Z</time>
      </trkpt>
      <trkpt lat="48.28611373901367" lon="17.062894105911255">
        <ele>236.41</ele>
        <time>2023-11-14T14:29:28.217Z</time>
      </trkpt>
      <trkpt lat="48.286263942718506" lon="17.063065767288208">
        <ele>237.22</ele>
        <time>2023-11-14T14:29:28.486Z</time>
      </trkpt>
      <trkpt lat="48.2863712310791" lon="17.063151597976685">
        <ele>237.86</ele>
        <time>2023-11-14T14:29:28.758Z</time>
      </trkpt>
      <trkpt lat="48.286532163619995" lon="17.06324815750122">
        <ele>238.34</ele>
        <time>2023-11-14T14:29:29.033Z</time>
      </trkpt>
      <trkpt lat="48.28695058822632" lon="17.063462734222412">
        <ele>238.55</ele>
        <time>2023-11-14T14:29:29.317Z</time>
      </trkpt>
      <trkpt lat="48.287433385849" lon="17.063688039779663">
        <ele>239.13</ele>
        <time>2023-11-14T14:29:29.611Z</time>
      </trkpt>
      <trkpt lat="48.28766942024231" lon="17.063848972320557">
        <ele>239.59</ele>
        <time>2023-11-14T14:29:29.910Z</time>
      </trkpt>
      <trkpt lat="48.287776708602905" lon="17.063956260681152">
        <ele>239.92</ele>
        <time>2023-11-14T14:29:30.212Z</time>
      </trkpt>
      <trkpt lat="48.28789472579956" lon="17.064149379730225">
        <ele>240.14</ele>
        <time>2023-11-14T14:29:30.517Z</time>
      </trkpt>
      <trkpt lat="48.288055742159486" lon="17.064836025238037">
        <ele>239.91</ele>
        <time>2023-11-14T14:29:30.832Z</time>
      </trkpt>
      <trkpt lat="48.288248777389526" lon="17.06527590751648">
        <ele>239.94</ele>
        <time>2023-11-14T14:29:31.154Z</time>
      </trkpt>
      <trkpt lat="48.28837752342224" lon="17.065361738204956">
        <ele>240.25</ele>
        <time>2023-11-14T14:29:31.479Z</time>
      </trkpt>
      <trkpt lat="48.288506269454956" lon="17.065404653549194">
        <ele>240.68</ele>
        <time>2023-11-14T14:29:31.807Z</time>
      </trkpt>
      <trkpt lat="48.2888388633728" lon="17.06549048423767">
        <ele>241.54</ele>
        <time>2023-11-14T14:29:32.141Z</time>
      </trkpt>
      <trkpt lat="48.28919291496277" lon="17.06551194190979">
        <ele>242.64</ele>
        <time>2023-11-14T14:29:32.482Z</time>
      </trkpt>
      <trkpt lat="48.28958988189697" lon="17.06547975540161">
        <ele>243.81</ele>
        <time>2023-11-14T14:29:32.831Z</time>
      </trkpt>
      <trkpt lat="48.28994393348694" lon="17.065318822860718">
        <ele>244.66</ele>
        <time>2023-11-14T14:29:33.188Z</time>
      </trkpt>
      <trkpt lat="48.29044818878174" lon="17.06502914428711">
        <ele>245.55</ele>
        <time>2023-11-14T14:29:33.556Z</time>
      </trkpt>
      <trkpt lat="48.29086661338806" lon="17.06475019454956">
        <ele>246.41</ele>
        <time>2023-11-14T14:29:33.933Z</time>
      </trkpt>
      <trkpt lat="48.29102762974799" lon="17.064685821533203">
        <ele>247.26</ele>
        <time>2023-11-14T14:29:34.313Z</time>
      </trkpt>
      <trkpt lat="48.291027545928955" lon="17.064685821533203">
        <ele>248.22</ele>
        <time>2023-11-14T14:29:34.693Z</time>
      </trkpt>
      <trkpt lat="48.29119929112494" lon="17.06476092338562">
        <ele>249.39</ele>
        <time>2023-11-14T14:29:35.077Z</time>
      </trkpt>
      <trkpt lat="48.29123147763312" lon="17.06477165222168">
        <ele>250.56</ele>
        <time>2023-11-14T14:29:35.461Z</time>
      </trkpt>
      <trkpt lat="48.291306579485536" lon="17.0647931098938">
        <ele>251.9</ele>
        <time>2023-11-14T14:29:35.847Z</time>
      </trkpt>
      <trkpt lat="48.291542530059814" lon="17.06476092338562">
        <ele>253.54</ele>
        <time>2023-11-14T14:29:36.238Z</time>
      </trkpt>
      <trkpt lat="48.29162844456732" lon="17.064718008041382">
        <ele>255.24</ele>
        <time>2023-11-14T14:29:36.630Z</time>
      </trkpt>
      <trkpt lat="48.291778564453125" lon="17.064589262008667">
        <ele>257.18</ele>
        <time>2023-11-14T14:29:37.026Z</time>
      </trkpt>
      <trkpt lat="48.29188585281372" lon="17.064460515975952">
        <ele>259.2</ele>
        <time>2023-11-14T14:29:37.425Z</time>
      </trkpt>
      <trkpt lat="48.29288363456726" lon="17.063076496124268">
        <ele>262.2</ele>
        <time>2023-11-14T14:29:37.851Z</time>
      </trkpt>
      <trkpt lat="48.293044567108154" lon="17.062894105911255">
        <ele>264.21</ele>
        <time>2023-11-14T14:29:38.281Z</time>
      </trkpt>
      <trkpt lat="48.29338788986206" lon="17.062625885009766">
        <ele>266.81</ele>
        <time>2023-11-14T14:29:38.719Z</time>
      </trkpt>
      <trkpt lat="48.29361319541931" lon="17.06248641014099">
        <ele>269.5</ele>
        <time>2023-11-14T14:29:39.161Z</time>
      </trkpt>
      <trkpt lat="48.29369902610779" lon="17.062464952468872">
        <ele>272.28</ele>
        <time>2023-11-14T14:29:39.605Z</time>
      </trkpt>
      <trkpt lat="48.2938277721405" lon="17.06247568130493">
        <ele>275.35</ele>
        <time>2023-11-14T14:29:40.052Z</time>
      </trkpt>
      <trkpt lat="48.29392433166504" lon="17.062604427337646">
        <ele>278.67</ele>
        <time>2023-11-14T14:29:40.501Z</time>
      </trkpt>
      <trkpt lat="48.29436421394348" lon="17.063452005386353">
        <ele>283.0</ele>
        <time>2023-11-14T14:29:40.965Z</time>
      </trkpt>
      <trkpt lat="48.29442858695984" lon="17.06354856491089">
        <ele>285.69</ele>
        <time>2023-11-14T14:29:41.431Z</time>
      </trkpt>
      <trkpt lat="48.29492211341858" lon="17.063891887664795">
        <ele>288.29</ele>
        <time>2023-11-14T14:29:41.907Z</time>
      </trkpt>
      <trkpt lat="48.29517960548401" lon="17.06400990486145">
        <ele>290.7</ele>
        <time>2023-11-14T14:29:42.389Z</time>
      </trkpt>
      <trkpt lat="48.29540491104126" lon="17.06405282020569">
        <ele>293.07</ele>
        <time>2023-11-14T14:29:42.875Z</time>
      </trkpt>
      <trkpt lat="48.29590916633606" lon="17.064063549041748">
        <ele>295.36</ele>
        <time>2023-11-14T14:29:43.371Z</time>
      </trkpt>
      <trkpt lat="48.29615592956543" lon="17.06398844718933">
        <ele>297.1</ele>
        <time>2023-11-14T14:29:43.872Z</time>
      </trkpt>
      <trkpt lat="48.29642415046692" lon="17.063827514648438">
        <ele>298.78</ele>
        <time>2023-11-14T14:29:44.379Z</time>
      </trkpt>
      <trkpt lat="48.29663872718811" lon="17.063623666763306">
        <ele>300.57</ele>
        <time>2023-11-14T14:29:44.891Z</time>
      </trkpt>
      <trkpt lat="48.297507762908936" lon="17.062604427337646">
        <ele>302.83</ele>
        <time>2023-11-14T14:29:45.425Z</time>
      </trkpt>
      <trkpt lat="48.29770088195801" lon="17.062464952468872">
        <ele>304.8</ele>
        <time>2023-11-14T14:29:45.964Z</time>
      </trkpt>
      <trkpt lat="48.29814076423645" lon="17.06226110458374">
        <ele>307.12</ele>
        <time>2023-11-14T14:29:46.512Z</time>
      </trkpt>
      <trkpt lat="48.29840898513794" lon="17.062089443206787">
        <ele>308.72</ele>
        <time>2023-11-14T14:29:47.066Z</time>
      </trkpt>
      <trkpt lat="48.298754738643765" lon="17.061716448515654">
        <ele>309.86</ele>
        <time>2023-11-14T14:29:47.628Z</time>
      </trkpt>
      <trkpt lat="48.2988166809082" lon="17.061649560928345">
        <ele>311.93</ele>
        <time>2023-11-14T14:29:48.192Z</time>
      </trkpt>
      <trkpt lat="48.29898842610419" lon="17.061359882354736">
        <ele>312.6</ele>
        <time>2023-11-14T14:29:48.761Z</time>
      </trkpt>
      <trkpt lat="48.29891324043274" lon="17.061198949813843">
        <ele>312.86</ele>
        <time>2023-11-14T14:29:49.333Z</time>
      </trkpt>
      <trkpt lat="48.2988166809082" lon="17.06105947494507">
        <ele>313.02</ele>
        <time>2023-11-14T14:29:49.907Z</time>
      </trkpt>
      <trkpt lat="48.29872012138367" lon="17.060962915420532">
        <ele>313.28</ele>
        <time>2023-11-14T14:29:50.484Z</time>
      </trkpt>
      <trkpt lat="48.29860210418701" lon="17.060909271240234">
        <ele>313.59</ele>
        <time>2023-11-14T14:29:51.063Z</time>
      </trkpt>
      <trkpt lat="48.29848417080939" lon="17.060898542404175">
        <ele>313.99</ele>
        <time>2023-11-14T14:29:51.644Z</time>
      </trkpt>
      <trkpt lat="48.29806566238403" lon="17.06080198287964">
        <ele>315.0</ele>
        <time>2023-11-14T14:29:52.234Z</time>
      </trkpt>
      <trkpt lat="48.29795837402344" lon="17.0607590675354">
        <ele>315.64</ele>
        <time>2023-11-14T14:29:52.826Z</time>
      </trkpt>
      <trkpt lat="48.29781889915466" lon="17.060651779174805">
        <ele>316.11</ele>
        <time>2023-11-14T14:29:53.421Z</time>
      </trkpt>
      <trkpt lat="48.29765796661377" lon="17.060447931289673">
        <ele>316.37</ele>
        <time>2023-11-14T14:29:54.021Z</time>
      </trkpt>
      <trkpt lat="48.29758286476135" lon="17.0603084564209">
        <ele>316.28</ele>
        <time>2023-11-14T14:29:54.623Z</time>
      </trkpt>
      <trkpt lat="48.29745411872864" lon="17.060072422027588">
        <ele>315.94</ele>
        <time>2023-11-14T14:29:55.229Z</time>
      </trkpt>
      <trkpt lat="48.29731464385986" lon="17.05955743789673">
        <ele>315.2</ele>
        <time>2023-11-14T14:29:55.842Z</time>
      </trkpt>
      <trkpt lat="48.29713225364685" lon="17.05904245376587">
        <ele>313.96</ele>
        <time>2023-11-14T14:29:56.463Z</time>
      </trkpt>
      <trkpt lat="48.296746015548706" lon="17.058387994766235">
        <ele>311.74</ele>
        <time>2023-11-14T14:29:57.096Z</time>
      </trkpt>
      <trkpt lat="48.29647779464722" lon="17.058173418045044">
        <ele>309.65</ele>
        <time>2023-11-14T14:29:57.735Z</time>
      </trkpt>
      <trkpt lat="48.29637050628662" lon="17.05805540084839">
        <ele>307.61</ele>
        <time>2023-11-14T14:29:58.377Z</time>
      </trkpt>
      <trkpt lat="48.29572677612305" lon="17.058173418045044">
        <ele>305.26</ele>
        <time>2023-11-14T14:29:59.032Z</time>
      </trkpt>
      <trkpt lat="48.294739723205566" lon="17.058645486831665">
        <ele>302.99</ele>
        <time>2023-11-14T14:29:59.707Z</time>
      </trkpt>
      <trkpt lat="48.29440712928772" lon="17.058838605880737">
        <ele>300.58</ele>
        <time>2023-11-14T14:30:00.389Z</time>
      </trkpt>
      <trkpt lat="48.29425700940192" lon="17.058838605880737">
        <ele>298.41</ele>
        <time>2023-11-14T14:30:01.074Z</time>
      </trkpt>
      <trkpt lat="48.293774127960205" lon="17.058860063552856">
        <ele>295.99</ele>
        <time>2023-11-14T14:30:01.769Z</time>
      </trkpt>
      <trkpt lat="48.293559635058045" lon="17.058870792388916">
        <ele>293.93</ele>
        <time>2023-11-14T14:30:02.468Z</time>
      </trkpt>
      <trkpt lat="48.29333424568176" lon="17.05898880958557">
        <ele>292.02</ele>
        <time>2023-11-14T14:30:03.172Z</time>
      </trkpt>
      <trkpt lat="48.29313039779663" lon="17.059171199798584">
        <ele>290.44</ele>
        <time>2023-11-14T14:30:03.881Z</time>
      </trkpt>
      <trkpt lat="48.29240083694458" lon="17.059718370437622">
        <ele>289.22</ele>
        <time>2023-11-14T14:30:04.606Z</time>
      </trkpt>
      <trkpt lat="48.29222917556763" lon="17.059879302978516">
        <ele>288.22</ele>
        <time>2023-11-14T14:30:05.335Z</time>
      </trkpt>
      <trkpt lat="48.29184293746948" lon="17.060190439224243">
        <ele>287.53</ele>
        <time>2023-11-14T14:30:06.073Z</time>
      </trkpt>
      <trkpt lat="48.29163908958435" lon="17.060383558273315">
        <ele>287.05</ele>
        <time>2023-11-14T14:30:06.816Z</time>
      </trkpt>
      <trkpt lat="48.29140305519104" lon="17.06055521965027">
        <ele>286.73</ele>
        <time>2023-11-14T14:30:07.564Z</time>
      </trkpt>
      <trkpt lat="48.29089879989624" lon="17.06100583076477">
        <ele>286.39</ele>
        <time>2023-11-14T14:30:08.324Z</time>
      </trkpt>
      <trkpt lat="48.29076083377004" lon="17.061103312298656">
        <ele>286.7</ele>
        <time>2023-11-14T14:30:09.087Z</time>
      </trkpt>
      <trkpt lat="48.2904589176178" lon="17.061316967010498">
        <ele>286.7</ele>
        <time>2023-11-14T14:30:09.857Z</time>
      </trkpt>
      <trkpt lat="48.290061950683594" lon="17.061649560928345">
        <ele>286.98</ele>
        <time>2023-11-14T14:30:10.636Z</time>
      </trkpt>
      <trkpt lat="48.2898473739624" lon="17.06175684928894">
        <ele>287.21</ele>
        <time>2023-11-14T14:30:11.419Z</time>
      </trkpt>
      <trkpt lat="48.289750814437866" lon="17.06177830696106">
        <ele>287.54</ele>
        <time>2023-11-14T14:30:12.204Z</time>
      </trkpt>
      <trkpt lat="48.28942894935608" lon="17.061703205108643">
        <ele>287.95</ele>
        <time>2023-11-14T14:30:12.996Z</time>
      </trkpt>
      <trkpt lat="48.2893431186676" lon="17.061713933944702">
        <ele>288.35</ele>
        <time>2023-11-14T14:30:13.790Z</time>
      </trkpt>
      <trkpt lat="48.289278745651245" lon="17.061692476272583">
        <ele>288.73</ele>
        <time>2023-11-14T14:30:14.585Z</time>
      </trkpt>
      <trkpt lat="48.28914999961853" lon="17.061617374420166">
        <ele>289.08</ele>
        <time>2023-11-14T14:30:15.383Z</time>
      </trkpt>
      <trkpt lat="48.28908562660217" lon="17.06152081489563">
        <ele>289.31</ele>
        <time>2023-11-14T14:30:16.182Z</time>
      </trkpt>
      <trkpt lat="48.28897833824158" lon="17.06149935722351">
        <ele>289.49</ele>
        <time>2023-11-14T14:30:16.984Z</time>
      </trkpt>
      <trkpt lat="48.288795948028564" lon="17.061349153518677">
        <ele>289.51</ele>
        <time>2023-11-14T14:30:17.790Z</time>
      </trkpt>
      <trkpt lat="48.288506269454956" lon="17.061166763305664">
        <ele>289.36</ele>
        <time>2023-11-14T14:30:18.602Z</time>
      </trkpt>
      <trkpt lat="48.28840970993042" lon="17.061156034469604">
        <ele>289.26</ele>
        <time>2023-11-14T14:30:19.416Z</time>
      </trkpt>
      <trkpt lat="48.2883882522583" lon="17.061134576797485">
        <ele>289.03</ele>
        <time>2023-11-14T14:30:20.231Z</time>
      </trkpt>
      <trkpt lat="48.28837752342224" lon="17.06105947494507">
        <ele>288.65</ele>
        <time>2023-11-14T14:30:21.047Z</time>
      </trkpt>
      <trkpt lat="48.288302421569824" lon="17.060973644256592">
        <ele>288.19</ele>
        <time>2023-11-14T14:30:21.864Z</time>
      </trkpt>
      <trkpt lat="48.288302421569824" lon="17.060941457748413">
        <ele>287.67</ele>
        <time>2023-11-14T14:30:22.682Z</time>
      </trkpt>
      <trkpt lat="48.28822731971741" lon="17.06079125404358">
        <ele>286.99</ele>
        <time>2023-11-14T14:30:23.502Z</time>
      </trkpt>
      <trkpt lat="48.28812003135681" lon="17.06072688102722">
        <ele>286.34</ele>
        <time>2023-11-14T14:30:24.325Z</time>
      </trkpt>
      <trkpt lat="48.28809857368469" lon="17.060673236846924">
        <ele>285.58</ele>
        <time>2023-11-14T14:30:25.149Z</time>
      </trkpt>
      <trkpt lat="48.288044929504395" lon="17.060608863830566">
        <ele>284.77</ele>
        <time>2023-11-14T14:30:25.974Z</time>
      </trkpt>
      <trkpt lat="48.28794836997986" lon="17.06055521965027">
        <ele>283.94</ele>
        <time>2023-11-14T14:30:26.801Z</time>
      </trkpt>
      <trkpt lat="48.28784108161926" lon="17.060469388961792">
        <ele>283.03</ele>
        <time>2023-11-14T14:30:27.630Z</time>
      </trkpt>
      <trkpt lat="48.287765979766846" lon="17.060437202453613">
        <ele>282.22</ele>
        <time>2023-11-14T14:30:28.461Z</time>
      </trkpt>
      <trkpt lat="48.28769087791443" lon="17.060362100601196">
        <ele>281.35</ele>
        <time>2023-11-14T14:30:29.294Z</time>
      </trkpt>
      <trkpt lat="48.28764796257019" lon="17.0602548122406">
        <ele>280.48</ele>
        <time>2023-11-14T14:30:30.128Z</time>
      </trkpt>
      <trkpt lat="48.28761577606201" lon="17.06023335456848">
        <ele>279.79</ele>
        <time>2023-11-14T14:30:30.963Z</time>
      </trkpt>
      <trkpt lat="48.287562131881714" lon="17.060136795043945">
        <ele>279.04</ele>
        <time>2023-11-14T14:30:31.800Z</time>
      </trkpt>
      <trkpt lat="48.287562215700746" lon="17.060136795043945">
        <ele>278.44</ele>
        <time>2023-11-14T14:30:32.637Z</time>
      </trkpt>
      <trkpt lat="48.287519216537476" lon="17.060083150863647">
        <ele>277.83</ele>
        <time>2023-11-14T14:30:33.475Z</time>
      </trkpt>
      <trkpt lat="48.28739047050476" lon="17.06005096435547">
        <ele>277.26</ele>
        <time>2023-11-14T14:30:34.316Z</time>
      </trkpt>
      <trkpt lat="48.287304639816284" lon="17.05997586250305">
        <ele>276.6</ele>
        <time>2023-11-14T14:30:35.159Z</time>
      </trkpt>
      <trkpt lat="48.287304723635316" lon="17.059922218322754">
        <ele>275.82</ele>
        <time>2023-11-14T14:30:36.002Z</time>
      </trkpt>
      <trkpt lat="48.28722953796387" lon="17.059857845306396">
        <ele>274.99</ele>
        <time>2023-11-14T14:30:36.847Z</time>
      </trkpt>
      <trkpt lat="48.287057876586914" lon="17.05978274345398">
        <ele>273.98</ele>
        <time>2023-11-14T14:30:37.696Z</time>
      </trkpt>
      <trkpt lat="48.28667163848877" lon="17.059203386306763">
        <ele>272.58</ele>
        <time>2023-11-14T14:30:38.556Z</time>
      </trkpt>
      <trkpt lat="48.28659653663635" lon="17.058935165405273">
        <ele>271.37</ele>
        <time>2023-11-14T14:30:39.419Z</time>
      </trkpt>
      <trkpt lat="48.28661799430847" lon="17.058677673339844">
        <ele>270.13</ele>
        <time>2023-11-14T14:30:40.286Z</time>
      </trkpt>
      <trkpt lat="48.28660726547241" lon="17.05848455429077">
        <ele>268.88</ele>
        <time>2023-11-14T14:30:41.155Z</time>
      </trkpt>
      <trkpt lat="48.286585891619325" lon="17.058345079421997">
        <ele>267.62</ele>
        <time>2023-11-14T14:30:42.026Z</time>
      </trkpt>
      <trkpt lat="48.286575162783265" lon="17.0582914352417">
        <ele>266.35</ele>
        <time>2023-11-14T14:30:42.898Z</time>
      </trkpt>
      <trkpt lat="48.286510705947876" lon="17.057948112487793">
        <ele>264.83</ele>
        <time>2023-11-14T14:30:43.775Z</time>
      </trkpt>
      <trkpt lat="48.28637131489813" lon="17.05731511116028">
        <ele>263.39</ele>
        <time>2023-11-14T14:30:44.661Z</time>
      </trkpt>
      <trkpt lat="48.28622102737427" lon="17.056467533111572">
        <ele>261.85</ele>
        <time>2023-11-14T14:30:45.558Z</time>
      </trkpt>
      <trkpt lat="48.285834873095155" lon="17.05554485321045">
        <ele>260.52</ele>
        <time>2023-11-14T14:30:46.470Z</time>
      </trkpt>
      <trkpt lat="48.28500556759536" lon="17.05405413173139">
        <ele>259.87</ele>
        <time>2023-11-14T14:30:47.408Z</time>
      </trkpt>
      <trkpt lat="48.28500548377633" lon="17.05405413173139">
        <ele>260.11</ele>
        <time>2023-11-14T14:30:48.346Z</time>
      </trkpt>
      <trkpt lat="48.28493356704712" lon="17.053924798965454">
        <ele>259.14</ele>
        <time>2023-11-14T14:30:49.286Z</time>
      </trkpt>
      <trkpt lat="48.28434348106384" lon="17.05281972885132">
        <ele>257.32</ele>
        <time>2023-11-14T14:30:50.245Z</time>
      </trkpt>
      <trkpt lat="48.28422554768622" lon="17.052927017211914">
        <ele>255.58</ele>
        <time>2023-11-14T14:30:51.207Z</time>
      </trkpt>
      <trkpt lat="48.28416109085083" lon="17.053163051605225">
        <ele>253.67</ele>
        <time>2023-11-14T14:30:52.172Z</time>
      </trkpt>
      <trkpt lat="48.28400024212897" lon="17.053409814834595">
        <ele>251.47</ele>
        <time>2023-11-14T14:30:53.142Z</time>
      </trkpt>
      <trkpt lat="48.28383922576904" lon="17.053710222244263">
        <ele>248.67</ele>
        <time>2023-11-14T14:30:54.117Z</time>
      </trkpt>
      <trkpt lat="48.28363546170294" lon="17.053956985473633">
        <ele>245.42</ele>
        <time>2023-11-14T14:30:55.097Z</time>
      </trkpt>
      <trkpt lat="48.283302867785096" lon="17.054343223571777">
        <ele>241.67</ele>
        <time>2023-11-14T14:30:56.086Z</time>
      </trkpt>
      <trkpt lat="48.28316330909729" lon="17.054643630981445">
        <ele>238.07</ele>
        <time>2023-11-14T14:30:57.080Z</time>
      </trkpt>
      <trkpt lat="48.28316339291632" lon="17.054643630981445">
        <ele>234.84</ele>
        <time>2023-11-14T14:30:58.074Z</time>
      </trkpt>
      <trkpt lat="48.28315258026123" lon="17.054675817489624">
        <ele>231.59</ele>
        <time>2023-11-14T14:30:59.068Z</time>
      </trkpt>
      <trkpt lat="48.28258395195007" lon="17.055351734161377">
        <ele>227.28</ele>
        <time>2023-11-14T14:31:00.077Z</time>
      </trkpt>
      <trkpt lat="48.28246593475342" lon="17.055394649505615">
        <ele>223.85</ele>
        <time>2023-11-14T14:31:01.088Z</time>
      </trkpt>
      <trkpt lat="48.282068967819214" lon="17.05574870109558">
        <ele>220.02</ele>
        <time>2023-11-14T14:31:02.108Z</time>
      </trkpt>
      <trkpt lat="48.28147888183594" lon="17.056210041046143">
        <ele>216.23</ele>
        <time>2023-11-14T14:31:03.142Z</time>
      </trkpt>
      <trkpt lat="48.280620658770204" lon="17.056617736816406">
        <ele>212.4</ele>
        <time>2023-11-14T14:31:04.194Z</time>
      </trkpt>
      <trkpt lat="48.28058838844299" lon="17.05623149871826">
        <ele>210.16</ele>
        <time>2023-11-14T14:31:05.251Z</time>
      </trkpt>
      <trkpt lat="48.280513286590576" lon="17.05603837966919">
        <ele>208.27</ele>
        <time>2023-11-14T14:31:06.311Z</time>
      </trkpt>
      <trkpt lat="48.2804274559021" lon="17.055941820144653">
        <ele>206.68</ele>
        <time>2023-11-14T14:31:07.373Z</time>
      </trkpt>
      <trkpt lat="48.28039535321295" lon="17.055898904800415">
        <ele>205.39</ele>
        <time>2023-11-14T14:31:08.436Z</time>
      </trkpt>
      <trkpt lat="48.280287981033325" lon="17.05578088760376">
        <ele>204.28</ele>
        <time>2023-11-14T14:31:09.501Z</time>
      </trkpt>
      <trkpt lat="48.280073404312134" lon="17.055577039718628">
        <ele>203.27</ele>
        <time>2023-11-14T14:31:10.572Z</time>
      </trkpt>
      <trkpt lat="48.2799768447876" lon="17.055383920669556">
        <ele>202.4</ele>
        <time>2023-11-14T14:31:11.646Z</time>
      </trkpt>
      <trkpt lat="48.27991247177124" lon="17.055190801620483">
        <ele>201.54</ele>
        <time>2023-11-14T14:31:12.723Z</time>
      </trkpt>
      <trkpt lat="48.279794454574585" lon="17.05500841140747">
        <ele>200.58</ele>
        <time>2023-11-14T14:31:13.803Z</time>
      </trkpt>
      <trkpt lat="48.27973016537726" lon="17.054868936538696">
        <ele>199.47</ele>
        <time>2023-11-14T14:31:14.885Z</time>
      </trkpt>
      <trkpt lat="48.2795880921185" lon="17.053743582218885">
        <ele>197.66</ele>
        <time>2023-11-14T14:31:15.983Z</time>
      </trkpt>
      <trkpt lat="48.27917226590216" lon="17.050448656082153">
        <ele>197.66</ele>
        <time>2023-11-14T14:31:17.125Z</time>
      </trkpt>
      <trkpt lat="48.2791615370661" lon="17.050362825393677">
        <ele>196.87</ele>
        <time>2023-11-14T14:31:18.269Z</time>
      </trkpt>
      <trkpt lat="48.279107892885804" lon="17.049890756607056">
        <ele>196.02</ele>
        <time>2023-11-14T14:31:19.419Z</time>
      </trkpt>
      <trkpt lat="48.27902575023472" lon="17.049269741401076">
        <ele>195.02</ele>
        <time>2023-11-14T14:31:20.577Z</time>
      </trkpt>
    </trkseg>
  </trk>
</gpx>
